createdAt,value
2019-03-13T00:00:13.489Z,9.30
2019-03-13T00:03:10.526Z,8.90
2019-03-13T00:06:01.297Z,9.00
2019-03-13T00:08:44.719Z,9.10
2019-03-13T00:11:41.498Z,9.10
2019-03-13T00:14:31.682Z,9.10
2019-03-13T00:17:08.256Z,9.00
2019-03-13T00:19:58.538Z,9.20
2019-03-13T00:22:35.418Z,9.10
2019-03-13T00:25:25.664Z,9.10
2019-03-13T00:28:09.039Z,9.00
2019-03-13T00:30:58.209Z,9.10
2019-03-13T00:33:34.728Z,8.90
2019-03-13T00:36:25.020Z,8.80
2019-03-13T00:39:01.996Z,8.70
2019-03-13T00:41:52.541Z,8.60
2019-03-13T00:44:35.186Z,8.60
2019-03-13T00:47:18.743Z,8.50
2019-03-13T00:50:01.847Z,8.40
2019-03-13T00:52:45.099Z,8.20
2019-03-13T00:55:34.322Z,8.30
2019-03-13T00:58:10.520Z,8.10
2019-03-13T01:01:10.353Z,8.10
2019-03-13T01:03:51.144Z,8.10
2019-03-13T01:06:44.371Z,8.10
2019-03-13T01:09:21.289Z,8.10
2019-03-13T01:12:11.371Z,8.00
2019-03-13T01:15:01.025Z,8.00
2019-03-13T01:17:45.994Z,8.00
2019-03-13T01:20:41.087Z,7.90
2019-03-13T01:23:36.327Z,7.80
2019-03-13T01:26:26.588Z,7.80
2019-03-13T01:29:09.788Z,7.90
2019-03-13T01:32:00.578Z,7.70
2019-03-13T01:34:39.120Z,7.70
2019-03-13T01:37:28.064Z,7.60
2019-03-13T01:40:11.836Z,7.50
2019-03-13T01:43:07.544Z,7.40
2019-03-13T01:46:02.365Z,7.30
2019-03-13T01:48:57.616Z,7.40
2019-03-13T01:51:47.756Z,7.40
2019-03-13T01:54:43.371Z,7.50
2019-03-13T01:57:33.831Z,7.40
2019-03-13T02:00:10.582Z,7.40
2019-03-13T02:03:00.796Z,7.30
2019-03-13T02:05:43.435Z,7.30
2019-03-13T02:08:32.447Z,7.20
2019-03-13T02:11:09.188Z,7.20
2019-03-13T02:13:59.851Z,7.00
2019-03-13T02:16:36.775Z,6.90
2019-03-13T02:19:26.338Z,6.80
2019-03-13T02:22:03.131Z,6.70
2019-03-13T02:24:54.147Z,6.80
2019-03-13T02:27:37.842Z,6.80
2019-03-13T02:30:35.829Z,6.70
2019-03-13T02:33:31.031Z,6.80
2019-03-13T02:36:20.842Z,6.90
2019-03-13T02:39:04.254Z,6.60
2019-03-13T02:41:48.756Z,6.60
2019-03-13T02:44:31.363Z,6.60
2019-03-13T02:47:18.730Z,6.70
2019-03-13T02:49:59.351Z,6.70
2019-03-13T02:52:42.685Z,6.70
2019-03-13T02:55:38.456Z,6.60
2019-03-13T02:58:33.642Z,6.70
2019-03-13T03:01:29.442Z,6.70
2019-03-13T03:04:07.384Z,6.70
2019-03-13T03:06:56.949Z,6.70
2019-03-13T03:09:33.938Z,6.80
2019-03-13T03:12:24.231Z,6.80
2019-03-13T03:15:05.865Z,6.80
2019-03-13T03:17:56.510Z,6.80
2019-03-13T03:20:33.364Z,6.80
2019-03-13T03:23:22.997Z,6.90
2019-03-13T03:25:58.914Z,7.00
2019-03-13T03:28:48.875Z,7.10
2019-03-13T03:31:25.672Z,7.00
2019-03-13T03:34:15.361Z,7.10
2019-03-13T03:36:51.490Z,7.10
2019-03-13T03:39:41.466Z,7.10
2019-03-13T03:42:24.389Z,7.00
2019-03-13T03:45:15.633Z,6.90
2019-03-13T03:47:58.358Z,6.70
2019-03-13T03:50:53.303Z,6.60
2019-03-13T03:53:48.185Z,6.70
2019-03-13T03:56:44.419Z,6.70
2019-03-13T03:59:34.392Z,6.60
2019-03-13T04:02:11.169Z,6.40
2019-03-13T04:05:01.860Z,6.00
2019-03-13T04:07:38.436Z,6.10
2019-03-13T04:10:27.616Z,6.10
2019-03-13T04:13:04.825Z,6.00
2019-03-13T04:15:54.819Z,6.00
2019-03-13T04:18:31.483Z,6.00
2019-03-13T04:21:20.870Z,5.80
2019-03-13T04:23:56.818Z,5.60
2019-03-13T04:26:46.807Z,5.70
2019-03-13T04:29:23.649Z,5.70
2019-03-13T04:32:13.945Z,5.50
2019-03-13T04:34:49.903Z,5.50
2019-03-13T04:37:40.696Z,5.40
2019-03-13T04:40:19.143Z,5.50
2019-03-13T04:43:09.251Z,5.10
2019-03-13T04:45:53.292Z,5.10
2019-03-13T04:48:36.742Z,5.20
2019-03-13T04:51:19.471Z,5.30
2019-03-13T04:54:02.829Z,5.40
2019-03-13T04:56:58.302Z,5.50
2019-03-13T04:59:47.311Z,5.60
2019-03-13T05:02:23.566Z,5.50
2019-03-13T05:05:12.677Z,5.60
2019-03-13T05:07:48.754Z,5.60
2019-03-13T05:10:39.471Z,5.70
2019-03-13T05:13:15.735Z,5.80
2019-03-13T05:16:04.887Z,5.80
2019-03-13T05:18:48.000Z,5.90
2019-03-13T05:21:43.101Z,5.90
2019-03-13T05:24:32.147Z,6.00
2019-03-13T05:27:15.611Z,5.90
2019-03-13T05:30:10.173Z,5.90
2019-03-13T05:32:59.581Z,5.80
2019-03-13T05:35:43.232Z,5.70
2019-03-13T05:38:38.486Z,5.70
2019-03-13T05:41:33.787Z,5.70
2019-03-13T05:44:16.556Z,5.50
2019-03-13T05:47:06.459Z,5.40
2019-03-13T05:49:42.464Z,5.60
2019-03-13T05:52:31.832Z,5.70
2019-03-13T05:55:15.299Z,5.70
2019-03-13T05:58:10.682Z,5.70
2019-03-13T06:01:06.426Z,5.70
2019-03-13T06:03:56.681Z,5.60
2019-03-13T06:06:33.708Z,5.60
2019-03-13T06:09:25.568Z,5.70
2019-03-13T06:12:08.815Z,5.70
2019-03-13T06:14:51.044Z,5.40
2019-03-13T06:17:41.847Z,5.40
2019-03-13T06:20:24.905Z,5.30
2019-03-13T06:23:07.726Z,5.00
2019-03-13T06:25:51.083Z,4.60
2019-03-13T06:28:42.713Z,4.80
2019-03-13T06:31:18.962Z,4.90
2019-03-13T06:34:11.496Z,4.90
2019-03-13T06:36:47.933Z,5.10
2019-03-13T06:39:38.337Z,5.20
2019-03-13T06:42:14.903Z,5.30
2019-03-13T06:45:04.720Z,5.60
2019-03-13T06:47:41.499Z,5.80
2019-03-13T06:50:36.605Z,6.00
2019-03-13T06:53:13.263Z,6.40
2019-03-13T06:56:03.995Z,6.60
2019-03-13T06:59:01.351Z,6.70
2019-03-13T07:02:00.709Z,7.10
2019-03-13T07:04:39.224Z,7.10
2019-03-13T07:07:47.087Z,7.50
2019-03-13T07:10:35.672Z,8.10
2019-03-13T07:13:51.746Z,8.30
2019-03-13T07:16:42.847Z,8.30
2019-03-13T07:19:36.552Z,8.40
2019-03-13T07:22:37.660Z,8.70
2019-03-13T07:25:22.202Z,9.30
2019-03-13T07:28:15.544Z,10.00
2019-03-13T07:30:57.238Z,10.60
2019-03-13T07:33:48.711Z,11.60
2019-03-13T07:36:39.415Z,12.00
2019-03-13T07:39:39.277Z,12.10
2019-03-13T07:42:37.697Z,11.90
2019-03-13T07:45:51.687Z,11.00
2019-03-13T07:48:56.679Z,10.50
2019-03-13T07:52:00.905Z,10.10
2019-03-13T07:54:54.847Z,10.10
2019-03-13T07:57:41.531Z,10.10
2019-03-13T08:00:43.916Z,10.10
2019-03-13T08:03:43.963Z,10.10
2019-03-13T08:06:35.368Z,9.70
2019-03-13T08:09:17.547Z,9.50
2019-03-13T08:12:12.258Z,9.50
2019-03-13T08:15:13.688Z,9.60
2019-03-13T08:18:07.505Z,9.70
2019-03-13T08:21:03.963Z,9.50
2019-03-13T08:23:56.460Z,9.50
2019-03-13T08:26:46.636Z,9.70
2019-03-13T08:29:43.528Z,9.80
2019-03-13T08:32:30.929Z,9.90
2019-03-13T08:35:18.418Z,10.10
2019-03-13T08:38:10.320Z,10.10
2019-03-13T08:40:54.744Z,10.10
2019-03-13T08:43:42.100Z,10.10
2019-03-13T08:46:26.877Z,10.10
2019-03-13T08:49:11.731Z,10.10
2019-03-13T08:51:56.743Z,10.00
2019-03-13T08:54:40.978Z,10.00
2019-03-13T08:57:29.510Z,10.00
2019-03-13T09:00:31.758Z,10.00
2019-03-13T09:03:35.455Z,10.00
2019-03-13T09:06:49.101Z,10.00
2019-03-13T09:09:47.458Z,10.00
2019-03-13T09:12:38.927Z,10.00
2019-03-13T09:15:46.645Z,9.90
2019-03-13T09:18:39.763Z,9.80
2019-03-13T09:21:42.768Z,9.80
2019-03-13T09:24:50.021Z,9.70
2019-03-13T09:27:48.591Z,9.70
2019-03-13T09:30:58.428Z,9.50
2019-03-13T09:33:49.718Z,9.50
2019-03-13T09:36:36.839Z,9.60
2019-03-13T09:39:36.100Z,9.60
2019-03-13T09:42:33.313Z,9.40
2019-03-13T09:45:30.936Z,9.50
2019-03-13T09:48:30.757Z,9.70
2019-03-13T09:51:38.936Z,9.80
2019-03-13T09:54:30.457Z,10.00
2019-03-13T09:57:18.337Z,10.20
2019-03-13T10:00:21.420Z,10.10
2019-03-13T10:03:26.240Z,10.10
2019-03-13T10:06:22.629Z,10.20
2019-03-13T10:09:32.330Z,10.00
2019-03-13T10:12:38.933Z,9.90
2019-03-13T10:15:23.248Z,9.80
2019-03-13T10:18:16.624Z,9.90
2019-03-13T10:21:03.705Z,10.00
2019-03-13T10:24:00.297Z,10.10
2019-03-13T10:26:44.939Z,10.20
2019-03-13T10:29:45.532Z,10.30
2019-03-13T10:32:47.721Z,10.40
2019-03-13T10:36:03.138Z,10.50
2019-03-13T10:39:16.785Z,10.60
2019-03-13T10:42:25.559Z,10.70
2019-03-13T10:45:17.324Z,10.80
2019-03-13T10:48:02.955Z,10.80
2019-03-13T10:51:04.705Z,10.90
2019-03-13T10:54:11.222Z,10.80
2019-03-13T10:57:08.222Z,10.80
2019-03-13T10:59:58.529Z,10.80
2019-03-13T11:02:56.259Z,10.80
2019-03-13T11:06:09.342Z,10.60
2019-03-13T11:09:06.659Z,10.60
2019-03-13T11:12:13.965Z,10.60
2019-03-13T11:14:55.012Z,10.60
2019-03-13T11:17:47.670Z,10.70
2019-03-13T11:20:28.812Z,10.70
2019-03-13T11:23:22.419Z,10.70
2019-03-13T11:26:00.032Z,10.50
2019-03-13T11:28:50.834Z,10.50
2019-03-13T11:31:28.566Z,10.40
2019-03-13T11:34:28.703Z,10.50
2019-03-13T11:37:25.977Z,10.60
2019-03-13T11:40:23.161Z,10.60
2019-03-13T11:43:04.868Z,10.80
2019-03-13T11:46:01.218Z,10.90
2019-03-13T11:48:38.950Z,10.80
2019-03-13T11:51:39.839Z,11.00
2019-03-13T11:54:20.704Z,10.90
2019-03-13T11:57:11.590Z,10.80
2019-03-13T12:00:13.088Z,10.70
2019-03-13T12:03:15.840Z,10.90
2019-03-13T12:06:18.653Z,11.10
2019-03-13T12:09:14.593Z,11.10
2019-03-13T12:12:05.785Z,10.70
2019-03-13T12:14:53.294Z,10.40
2019-03-13T12:17:51.129Z,10.70
2019-03-13T12:20:53.790Z,10.70
2019-03-13T12:23:45.123Z,10.90
2019-03-13T12:26:38.155Z,11.00
2019-03-13T12:29:44.247Z,11.10
2019-03-13T12:32:44.527Z,11.00
2019-03-13T12:35:54.650Z,11.00
2019-03-13T12:38:49.643Z,11.10
2019-03-13T12:41:56.526Z,11.20
2019-03-13T12:44:38.133Z,11.30
2019-03-13T12:47:34.111Z,11.40
2019-03-13T12:50:13.559Z,11.60
2019-03-13T12:53:15.734Z,11.50
2019-03-13T12:56:03.990Z,11.60
2019-03-13T12:58:59.930Z,11.50
2019-03-13T13:01:50.955Z,11.40
2019-03-13T13:04:46.800Z,11.30
2019-03-13T13:07:41.204Z,11.20
2019-03-13T13:10:35.571Z,11.30
2019-03-13T13:13:29.587Z,11.30
2019-03-13T13:16:26.941Z,11.30
2019-03-13T13:19:19.995Z,11.30
2019-03-13T13:22:04.144Z,11.50
2019-03-13T13:25:00.850Z,11.60
2019-03-13T13:28:01.849Z,11.50
2019-03-13T13:30:58.383Z,11.60
2019-03-13T13:33:54.030Z,11.40
2019-03-13T13:36:36.449Z,11.40
2019-03-13T13:39:26.557Z,11.50
2019-03-13T13:42:03.338Z,11.40
2019-03-13T13:44:52.725Z,11.50
2019-03-13T13:47:29.108Z,11.50
2019-03-13T13:50:21.480Z,11.50
2019-03-13T13:52:58.387Z,11.60
2019-03-13T13:55:47.889Z,11.60
2019-03-13T13:58:24.319Z,11.70
2019-03-13T14:01:14.993Z,11.70
2019-03-13T14:04:04.198Z,11.70
2019-03-13T14:06:59.868Z,11.70
2019-03-13T14:09:55.945Z,11.70
2019-03-13T14:12:46.992Z,11.80
2019-03-13T14:15:30.801Z,11.80
2019-03-13T14:18:26.219Z,11.80
2019-03-13T14:21:21.309Z,11.80
2019-03-13T14:24:11.240Z,11.80
2019-03-13T14:26:53.921Z,11.70
2019-03-13T14:29:42.965Z,11.80
2019-03-13T14:32:19.255Z,11.60
2019-03-13T14:35:08.931Z,11.60
2019-03-13T14:37:51.458Z,11.40
2019-03-13T14:40:46.541Z,11.50
2019-03-13T14:43:41.612Z,11.50
2019-03-13T14:46:37.226Z,11.40
2019-03-13T14:49:32.383Z,11.60
2019-03-13T14:52:27.434Z,11.60
2019-03-13T14:55:18.815Z,11.70
2019-03-13T14:58:02.329Z,11.80
2019-03-13T15:00:57.658Z,11.90
2019-03-13T15:03:47.811Z,11.90
2019-03-13T15:06:43.355Z,11.80
2019-03-13T15:09:32.802Z,11.90
2019-03-13T15:12:09.804Z,11.90
2019-03-13T15:15:00.493Z,12.00
2019-03-13T15:17:43.592Z,12.00
2019-03-13T15:20:31.268Z,11.80
2019-03-13T15:23:14.861Z,11.80
2019-03-13T15:25:58.482Z,11.80
2019-03-13T15:28:41.465Z,11.70
2019-03-13T15:31:27.299Z,11.70
2019-03-13T15:34:10.410Z,11.80
2019-03-13T15:36:53.401Z,11.80
2019-03-13T15:39:43.515Z,11.80
2019-03-13T15:42:27.137Z,11.70
2019-03-13T15:45:09.915Z,11.80
2019-03-13T15:47:53.484Z,11.90
2019-03-13T15:50:43.980Z,11.90
2019-03-13T15:53:20.084Z,11.90
2019-03-13T15:56:09.837Z,11.80
2019-03-13T15:58:46.393Z,11.70
2019-03-13T16:01:38.243Z,11.60
2019-03-13T16:04:15.341Z,11.60
2019-03-13T16:07:05.112Z,11.60
2019-03-13T16:10:03.099Z,11.60
2019-03-13T16:12:59.243Z,11.70
2019-03-13T16:15:55.973Z,11.70
2019-03-13T16:18:51.872Z,11.70
2019-03-13T16:21:48.962Z,11.70
2019-03-13T16:24:40.563Z,11.60
2019-03-13T16:27:23.788Z,11.50
2019-03-13T16:30:30.457Z,11.50
2019-03-13T16:33:21.502Z,11.40
2019-03-13T16:36:05.034Z,11.40
2019-03-13T16:38:54.931Z,11.40
2019-03-13T16:41:31.851Z,11.40
2019-03-13T16:44:22.230Z,11.30
2019-03-13T16:47:05.520Z,11.20
2019-03-13T16:49:55.816Z,11.20
2019-03-13T16:52:32.430Z,11.20
2019-03-13T16:55:24.448Z,11.10
2019-03-13T16:58:01.391Z,11.10
2019-03-13T17:00:50.914Z,11.10
2019-03-13T17:03:27.913Z,11.00
2019-03-13T17:06:24.640Z,10.90
2019-03-13T17:09:28.268Z,10.90
2019-03-13T17:12:23.435Z,10.80
2019-03-13T17:15:23.323Z,10.60
2019-03-13T17:18:12.760Z,10.50
2019-03-13T17:20:57.834Z,10.40
2019-03-13T17:23:52.737Z,10.50
2019-03-13T17:26:47.807Z,10.30
2019-03-13T17:29:37.811Z,10.30
2019-03-13T17:32:15.099Z,10.30
2019-03-13T17:35:05.863Z,10.40
2019-03-13T17:37:48.640Z,10.30
2019-03-13T17:40:47.986Z,10.40
2019-03-13T17:46:32.400Z,10.30
2019-03-13T17:49:30.776Z,10.30
2019-03-13T17:52:20.868Z,10.30
2019-03-13T17:55:10.181Z,10.30
2019-03-13T17:58:05.464Z,10.30
2019-03-13T18:01:02.648Z,10.30
2019-03-13T18:03:59.416Z,10.30
2019-03-13T18:06:56.011Z,10.30
2019-03-13T18:09:45.426Z,10.30
2019-03-13T18:12:21.420Z,10.20
2019-03-13T18:15:15.106Z,10.10
2019-03-13T18:17:57.070Z,10.10
2019-03-13T18:20:40.500Z,9.90
2019-03-13T18:23:29.134Z,9.80
2019-03-13T18:26:12.719Z,9.80
2019-03-13T18:28:55.584Z,9.80
2019-03-13T18:31:38.992Z,9.80
2019-03-13T18:34:22.035Z,9.60
2019-03-13T18:37:04.881Z,9.60
2019-03-13T18:39:47.564Z,9.70
2019-03-13T18:42:30.552Z,9.70
2019-03-13T18:45:23.050Z,9.70
2019-03-13T18:48:06.523Z,9.80
2019-03-13T18:50:49.362Z,9.90
2019-03-13T18:53:32.153Z,9.80
2019-03-13T18:56:15.018Z,9.80
2019-03-13T18:58:58.846Z,9.80
2019-03-13T19:01:41.324Z,9.70
2019-03-13T19:04:24.593Z,9.60
2019-03-13T19:07:07.501Z,9.60
2019-03-13T19:09:51.097Z,9.70
2019-03-13T19:12:34.148Z,9.80
2019-03-13T19:15:22.815Z,9.70
2019-03-13T19:18:12.334Z,9.60
2019-03-13T19:20:48.914Z,9.50
2019-03-13T19:23:37.859Z,9.50
2019-03-13T19:26:21.637Z,9.50
2019-03-13T19:29:11.174Z,9.40
2019-03-13T19:31:47.992Z,9.40
2019-03-13T19:34:37.954Z,9.30
2019-03-13T19:37:14.595Z,9.20
2019-03-13T19:40:04.619Z,9.10
2019-03-13T19:42:41.509Z,8.90
2019-03-13T19:45:36.354Z,8.80
2019-03-13T19:48:19.539Z,8.90
2019-03-13T19:51:02.206Z,9.00
2019-03-13T19:53:45.905Z,9.00
2019-03-13T19:56:29.102Z,9.00
2019-03-13T19:59:12.577Z,8.90
2019-03-13T20:02:02.057Z,9.00
2019-03-13T20:04:47.574Z,8.90
2019-03-13T20:07:29.983Z,8.90
2019-03-13T20:10:22.876Z,8.90
2019-03-13T20:13:06.069Z,8.90
2019-03-13T20:15:50.744Z,8.80
2019-03-13T20:18:33.356Z,8.70
2019-03-13T20:21:16.773Z,8.70
2019-03-13T20:23:59.612Z,8.60
2019-03-13T20:26:43.016Z,8.60
2019-03-13T20:29:24.951Z,8.50
2019-03-13T20:32:08.892Z,8.40
2019-03-13T20:34:51.224Z,8.50
2019-03-13T20:37:34.672Z,8.60
2019-03-13T20:40:26.683Z,8.50
2019-03-13T20:43:09.513Z,8.40
2019-03-13T20:45:52.399Z,8.50
2019-03-13T20:48:43.590Z,8.50
2019-03-13T20:51:31.419Z,8.40
2019-03-13T20:54:24.612Z,8.40
2019-03-13T20:57:20.047Z,8.30
2019-03-13T21:00:03.778Z,8.20
2019-03-13T21:02:50.084Z,8.20
2019-03-13T21:05:44.364Z,8.20
2019-03-13T21:08:27.661Z,8.10
2019-03-13T21:11:24.460Z,8.10
2019-03-13T21:14:13.521Z,8.10
2019-03-13T21:16:57.374Z,8.00
2019-03-13T21:19:53.826Z,7.90
2019-03-13T21:22:53.301Z,8.00
2019-03-13T21:25:52.172Z,7.80
2019-03-13T21:28:42.503Z,7.80
2019-03-13T21:31:23.497Z,7.80
2019-03-13T21:34:18.295Z,7.80
2019-03-13T21:37:01.758Z,7.80
2019-03-13T21:39:48.580Z,7.90
2019-03-13T21:42:38.503Z,7.80
2019-03-13T21:45:22.346Z,7.90
2019-03-13T21:48:05.962Z,7.80
2019-03-13T21:51:01.275Z,7.80
2019-03-13T21:53:56.996Z,7.90
2019-03-13T21:56:53.236Z,7.90
2019-03-13T21:59:48.321Z,8.00
2019-03-13T22:02:39.035Z,7.40
2019-03-13T22:05:24.950Z,6.80
2019-03-13T22:08:06.878Z,6.80
2019-03-13T22:10:43.771Z,7.00
2019-03-13T22:13:33.438Z,7.10
2019-03-13T22:16:10.127Z,7.10
2019-03-13T22:19:00.380Z,7.10
2019-03-13T22:21:43.567Z,7.10
2019-03-13T22:24:39.481Z,7.10
2019-03-13T22:27:34.850Z,7.10
2019-03-13T22:30:32.678Z,7.00
2019-03-13T22:33:22.377Z,6.90
2019-03-13T22:36:05.306Z,6.80
2019-03-13T22:39:02.344Z,6.70
2019-03-13T22:41:58.482Z,6.70
2019-03-13T22:44:54.159Z,6.80
2019-03-13T22:47:49.543Z,6.50
2019-03-13T22:50:45.179Z,6.40
2019-03-13T22:53:35.074Z,6.50
2019-03-13T22:56:18.190Z,6.70
2019-03-13T22:59:01.751Z,6.60
2019-03-13T23:01:51.530Z,6.70
2019-03-13T23:04:27.616Z,6.70
2019-03-13T23:07:17.644Z,6.90
2019-03-13T23:10:08.610Z,7.00
2019-03-13T23:12:50.664Z,6.90
2019-03-13T23:15:46.057Z,6.80
2019-03-13T23:18:35.641Z,6.80
2019-03-13T23:21:12.321Z,6.70
2019-03-13T23:24:01.959Z,6.70
2019-03-13T23:26:38.462Z,6.70
2019-03-13T23:29:28.612Z,6.70
2019-03-13T23:32:05.443Z,6.70
2019-03-13T23:34:55.430Z,6.70
2019-03-13T23:37:38.333Z,6.70
2019-03-13T23:40:34.233Z,6.60
2019-03-13T23:43:30.079Z,6.70
2019-03-13T23:46:25.487Z,6.70
2019-03-13T23:49:16.321Z,6.60
2019-03-13T23:51:53.004Z,6.70
2019-03-13T23:54:42.797Z,6.70
2019-03-13T23:57:19.366Z,6.60
